Time;durP1;ratioP1;P1;durP2;ratioP2;P2;SDS_P1;SDS_P2;PMS_P1;PMS_P2;Temp;Humidity;BMP_temperature;BMP_pressure;BME280_temperature;BME280_humidity;BME280_pressure;Samples;Min_cycle;Max_cycle;Signal;HPM_P1;HPM_P2
2022/08/24 00:00:15;;;;;;;10.77;8.65;;;;;;;;;;5004137;28;20060;-77
2022/08/24 00:02:42;;;;;;;11.63;7.40;;;;;;;;;;5009752;28;20093;-77
2022/08/24 00:05:10;;;;;;;12.05;7.38;;;;;;;;;;5008039;28;20074;-77
2022/08/24 00:07:41;;;;;;;10.00;6.90;;;;;;;;;;5007522;28;20105;-76
2022/08/24 00:10:10;;;;;;;14.45;7.20;;;;;;;;;;5004455;28;20054;-77
2022/08/24 00:12:38;;;;;;;9.82;7.43;;;;;;;;;;5007095;28;20055;-75
2022/08/24 00:15:06;;;;;;;12.18;6.80;;;;;;;;;;5001403;28;20055;-75
2022/08/24 00:17:33;;;;;;;8.77;7.30;;;;;;;;;;5007279;28;20050;-76
2022/08/24 00:20:01;;;;;;;12.32;7.13;;;;;;;;;;5006927;28;20049;-77
2022/08/24 00:22:28;;;;;;;10.05;7.50;;;;;;;;;;5000995;28;20763;-75
2022/08/24 00:24:55;;;;;;;9.70;6.35;;;;;;;;;;5001009;28;20038;-75
2022/08/24 00:27:23;;;;;;;10.50;7.20;;;;;;;;;;5004517;28;20060;-75
2022/08/24 00:29:50;;;;;;;9.93;7.47;;;;;;;;;;5002087;28;20058;-76
2022/08/24 00:32:18;;;;;;;9.13;6.53;;;;;;;;;;5003478;28;20050;-76
2022/08/24 00:34:46;;;;;;;9.20;7.32;;;;;;;;;;5005130;28;20050;-76
2022/08/24 00:37:25;;;;;;;9.40;6.82;;;;;;;;;;5001665;28;20050;-76
2022/08/24 00:39:52;;;;;;;10.57;7.45;;;;;;;;;;5001102;28;20056;-76
2022/08/24 00:42:20;;;;;;;11.80;7.90;;;;;;;;;;5005417;28;20527;-77
2022/08/24 00:44:47;;;;;;;12.23;7.50;;;;;;;;;;5001130;28;20060;-75
2022/08/24 00:47:20;;;;;;;9.35;7.40;;;;;;;;;;5001786;28;20051;-76
2022/08/24 00:49:51;;;;;;;11.90;7.25;;;;;;;;;;4998431;28;20058;-75
2022/08/24 00:52:24;;;;;;;7.45;6.68;;;;;;;;;;5002291;28;20055;-75
2022/08/24 00:54:56;;;;;;;8.55;6.25;;;;;;;;;;5002989;28;20083;-75
2022/08/24 00:57:27;;;;;;;7.82;6.80;;;;;;;;;;5005296;28;20058;-75
2022/08/24 01:00:00;;;;;;;8.68;5.75;;;;;;;;;;4999579;28;20059;-75
2022/08/24 01:02:31;;;;;;;7.60;6.22;;;;;;;;;;4996904;28;20042;-77
2022/08/24 01:05:00;;;;;;;13.95;7.22;;;;;;;;;;5014912;28;20050;-75
2022/08/24 01:07:29;;;;;;;10.98;6.38;;;;;;;;;;5004029;28;20068;-75
2022/08/24 01:09:59;;;;;;;7.90;6.20;;;;;;;;;;4999951;28;20125;-76
2022/08/24 01:12:27;;;;;;;7.45;5.85;;;;;;;;;;4999427;28;20159;-75
2022/08/24 01:14:56;;;;;;;8.52;5.75;;;;;;;;;;5003604;28;20132;-76
2022/08/24 01:20:10;;;;;;;9.30;6.40;;;;;;;;;;5000243;28;20059;-75
2022/08/24 01:22:50;;;;;;;7.03;5.82;;;;;;;;;;4999021;28;20054;-75
2022/08/24 01:25:18;;;;;;;8.63;5.50;;;;;;;;;;5004234;28;20050;-75
2022/08/24 01:27:46;;;;;;;8.38;5.47;;;;;;;;;;5002760;28;20166;-75
2022/08/24 01:30:16;;;;;;;6.30;5.03;;;;;;;;;;4996498;28;20094;-76
2022/08/24 01:32:53;;;;;;;8.10;5.43;;;;;;;;;;5007216;28;20051;-75
2022/08/24 01:35:20;;;;;;;10.57;5.53;;;;;;;;;;5002432;28;20046;-76
2022/08/24 01:37:48;;;;;;;10.02;5.70;;;;;;;;;;4992855;28;20043;-75
2022/08/24 01:40:15;;;;;;;9.20;5.95;;;;;;;;;;4998715;28;20057;-76
2022/08/24 01:42:47;;;;;;;7.35;6.10;;;;;;;;;;4996863;28;20108;-76
2022/08/24 01:45:15;;;;;;;12.70;8.03;;;;;;;;;;5001263;28;20114;-75
2022/08/24 01:47:42;;;;;;;10.93;7.80;;;;;;;;;;4996742;28;20093;-76
2022/08/24 01:50:09;;;;;;;12.68;6.60;;;;;;;;;;5001598;28;20045;-76
2022/08/24 01:52:38;;;;;;;8.30;5.85;;;;;;;;;;5004099;28;20054;-76
2022/08/24 01:55:26;;;;;;;7.38;5.75;;;;;;;;;;4994956;28;20046;-76
2022/08/24 01:57:53;;;;;;;7.38;5.55;;;;;;;;;;4993893;28;20051;-77
2022/08/24 02:00:20;;;;;;;11.85;5.60;;;;;;;;;;4995493;28;20051;-76
2022/08/24 02:02:48;;;;;;;9.40;6.25;;;;;;;;;;4992553;28;20062;-76
2022/08/24 02:05:15;;;;;;;7.78;5.80;;;;;;;;;;4996652;28;20074;-76
2022/08/24 02:07:43;;;;;;;9.50;6.78;;;;;;;;;;5004124;28;20058;-75
2022/08/24 02:10:12;;;;;;;8.20;6.85;;;;;;;;;;4996065;28;20055;-75
2022/08/24 02:12:41;;;;;;;9.48;7.00;;;;;;;;;;4999421;28;20055;-76
2022/08/24 02:15:08;;;;;;;8.55;6.70;;;;;;;;;;4996586;28;20051;-76
2022/08/24 02:17:35;;;;;;;8.05;6.50;;;;;;;;;;5005145;28;20063;-76
2022/08/24 02:20:04;;;;;;;10.90;6.63;;;;;;;;;;4999330;28;20051;-77
2022/08/24 02:22:32;;;;;;;9.85;6.10;;;;;;;;;;4998438;28;20054;-77
2022/08/24 02:24:59;;;;;;;6.40;5.05;;;;;;;;;;4991929;28;20822;-76
2022/08/24 02:27:26;;;;;;;7.90;5.32;;;;;;;;;;5002618;28;20053;-77
2022/08/24 02:29:53;;;;;;;8.57;5.65;;;;;;;;;;4996214;28;20057;-76
2022/08/24 02:32:20;;;;;;;8.30;5.05;;;;;;;;;;4995073;28;20061;-75
2022/08/24 02:34:47;;;;;;;5.53;4.30;;;;;;;;;;4998775;28;20054;-76
2022/08/24 02:37:20;;;;;;;6.68;4.30;;;;;;;;;;4998397;28;20055;-76
2022/08/24 02:39:47;;;;;;;5.85;4.47;;;;;;;;;;4992803;28;20061;-76
2022/08/24 02:42:15;;;;;;;8.45;5.38;;;;;;;;;;4995195;28;20170;-77
2022/08/24 02:44:42;;;;;;;8.75;5.35;;;;;;;;;;5019443;28;20051;-76
2022/08/24 02:47:09;;;;;;;8.35;5.93;;;;;;;;;;4998901;28;20109;-76
2022/08/24 02:49:37;;;;;;;10.00;5.45;;;;;;;;;;5004529;28;20047;-76
2022/08/24 02:52:04;;;;;;;9.93;5.05;;;;;;;;;;4999867;28;20054;-75
2022/08/24 02:54:31;;;;;;;7.13;4.78;;;;;;;;;;4998005;28;20046;-75
2022/08/24 02:56:58;;;;;;;6.47;4.88;;;;;;;;;;5001583;28;20057;-75
2022/08/24 02:59:26;;;;;;;8.25;4.63;;;;;;;;;;5003630;28;20092;-75
2022/08/24 03:01:53;;;;;;;9.45;5.25;;;;;;;;;;4999305;28;20031;-76
2022/08/24 03:04:20;;;;;;;9.48;5.18;;;;;;;;;;5008702;28;20050;-75
2022/08/24 03:06:47;;;;;;;7.57;5.20;;;;;;;;;;4999499;28;20876;-75
2022/08/24 03:09:15;;;;;;;5.85;4.97;;;;;;;;;;5002080;28;20051;-75
2022/08/24 03:11:42;;;;;;;8.60;5.25;;;;;;;;;;4996824;28;20815;-74
2022/08/24 03:14:12;;;;;;;7.68;5.40;;;;;;;;;;5005149;28;20046;-75
2022/08/24 03:16:40;;;;;;;8.35;5.07;;;;;;;;;;5007268;28;20503;-76
2022/08/24 03:19:07;;;;;;;7.43;4.70;;;;;;;;;;5001760;28;20089;-75
2022/08/24 03:21:34;;;;;;;8.15;4.90;;;;;;;;;;4999492;28;20047;-75
2022/08/24 03:24:01;;;;;;;7.70;4.90;;;;;;;;;;5005639;28;20047;-74
2022/08/24 03:26:28;;;;;;;12.32;4.50;;;;;;;;;;5006856;28;20051;-74
2022/08/24 03:28:55;;;;;;;5.78;3.92;;;;;;;;;;5009628;28;20047;-75
2022/08/24 03:31:25;;;;;;;8.88;3.30;;;;;;;;;;5002455;28;20145;-75
2022/08/24 03:33:52;;;;;;;4.72;3.00;;;;;;;;;;5004595;28;20800;-76
2022/08/24 03:36:19;;;;;;;4.57;3.28;;;;;;;;;;5008514;28;20493;-76
2022/08/24 03:38:46;;;;;;;7.28;3.42;;;;;;;;;;5004664;28;20073;-75
2022/08/24 03:41:13;;;;;;;5.90;3.90;;;;;;;;;;5006616;28;20161;-76
2022/08/24 03:43:47;;;;;;;6.32;3.53;;;;;;;;;;5004704;28;20057;-75
2022/08/24 03:46:20;;;;;;;8.10;4.40;;;;;;;;;;5014856;28;20150;-74
2022/08/24 03:48:48;;;;;;;8.13;4.88;;;;;;;;;;5006807;28;20069;-74
2022/08/24 03:51:17;;;;;;;6.78;4.60;;;;;;;;;;5007848;28;20050;-74
2022/08/24 03:53:45;;;;;;;6.10;4.22;;;;;;;;;;5009040;28;20986;-74
2022/08/24 03:56:12;;;;;;;5.00;3.45;;;;;;;;;;5009212;28;20054;-74
2022/08/24 03:58:40;;;;;;;4.47;3.75;;;;;;;;;;5006810;28;20050;-75
2022/08/24 04:01:08;;;;;;;5.50;3.47;;;;;;;;;;5003288;28;20085;-75
2022/08/24 04:03:36;;;;;;;4.95;3.50;;;;;;;;;;5006615;28;20050;-74
2022/08/24 04:06:04;;;;;;;6.80;3.85;;;;;;;;;;4998180;28;21725;-74
2022/08/24 04:08:32;;;;;;;5.70;3.45;;;;;;;;;;5002061;28;20120;-75
2022/08/24 04:10:59;;;;;;;5.63;4.10;;;;;;;;;;5002306;28;20941;-75
2022/08/24 04:13:30;;;;;;;3.67;2.90;;;;;;;;;;5003167;28;20142;-75
2022/08/24 04:15:58;;;;;;;3.90;2.83;;;;;;;;;;4994028;28;20074;-75
2022/08/24 04:18:25;;;;;;;6.18;3.35;;;;;;;;;;5005220;28;20059;-74
2022/08/24 04:20:54;;;;;;;17.42;3.47;;;;;;;;;;4994634;28;20043;-75
2022/08/24 04:23:22;;;;;;;5.80;3.78;;;;;;;;;;5004046;28;20046;-74
2022/08/24 04:25:55;;;;;;;;;;;;;;;;;;5001819;28;20121;-75
2022/08/24 04:28:22;;;;;;;11.60;4.47;;;;;;;;;;4997601;28;43498;-75
2022/08/24 04:30:50;;;;;;;8.60;4.55;;;;;;;;;;5004984;28;20896;-74
2022/08/24 04:33:18;;;;;;;9.15;5.18;;;;;;;;;;5007113;28;20050;-74
2022/08/24 04:35:47;;;;;;;7.93;4.78;;;;;;;;;;4999480;28;20051;-75
2022/08/24 04:38:18;;;;;;;11.40;5.20;;;;;;;;;;5003824;28;20051;-75
2022/08/24 04:40:47;;;;;;;9.30;5.15;;;;;;;;;;5003603;28;20061;-75
2022/08/24 04:43:16;;;;;;;11.95;6.15;;;;;;;;;;4998367;28;20875;-75
2022/08/24 04:45:48;;;;;;;9.48;6.75;;;;;;;;;;4996650;28;20059;-75
2022/08/24 04:48:16;;;;;;;6.43;4.95;;;;;;;;;;5001132;28;20090;-74
2022/08/24 04:50:43;;;;;;;9.75;5.80;;;;;;;;;;4996337;28;20047;-76
2022/08/24 04:53:12;;;;;;;9.18;5.70;;;;;;;;;;5006119;28;20063;-75
2022/08/24 04:55:44;;;;;;;13.23;5.32;;;;;;;;;;4994161;28;20182;-74
2022/08/24 04:58:12;;;;;;;13.75;5.25;;;;;;;;;;5006798;28;20051;-77
2022/08/24 05:00:40;;;;;;;9.55;5.07;;;;;;;;;;4998068;28;20046;-74
2022/08/24 05:03:07;;;;;;;6.85;5.47;;;;;;;;;;4999979;28;20133;-74
2022/08/24 05:05:34;;;;;;;7.50;5.85;;;;;;;;;;5002974;28;20050;-75
2022/08/24 05:08:01;;;;;;;9.32;5.75;;;;;;;;;;4999969;28;20054;-75
2022/08/24 05:10:29;;;;;;;13.40;6.60;;;;;;;;;;5003399;28;20038;-75
2022/08/24 05:12:59;;;;;;;8.27;5.40;;;;;;;;;;5004950;28;20084;-73
2022/08/24 05:15:27;;;;;;;12.05;6.72;;;;;;;;;;5004173;28;20146;-75
2022/08/24 05:17:54;;;;;;;9.68;5.55;;;;;;;;;;5002052;28;20089;-76
2022/08/24 05:20:21;;;;;;;10.75;5.22;;;;;;;;;;5005535;28;20055;-74
2022/08/24 05:22:51;;;;;;;9.10;5.90;;;;;;;;;;4998852;28;20137;-74
2022/08/24 05:25:22;;;;;;;9.35;5.53;;;;;;;;;;5000629;28;20768;-74
2022/08/24 05:27:50;;;;;;;10.73;5.53;;;;;;;;;;5005338;28;20054;-74
2022/08/24 05:30:17;;;;;;;8.15;5.03;;;;;;;;;;5000861;28;20513;-74
2022/08/24 05:32:45;;;;;;;12.50;5.40;;;;;;;;;;4997768;28;20815;-75
2022/08/24 05:35:12;;;;;;;7.22;4.97;;;;;;;;;;5000499;28;20054;-75
2022/08/24 05:37:40;;;;;;;8.18;5.15;;;;;;;;;;5002303;28;20054;-74
2022/08/24 05:40:09;;;;;;;6.97;5.10;;;;;;;;;;5008492;28;20144;-74
2022/08/24 05:42:36;;;;;;;8.90;4.43;;;;;;;;;;5010095;28;20058;-74
2022/08/24 05:45:04;;;;;;;8.00;4.70;;;;;;;;;;5000273;28;20057;-74
2022/08/24 05:47:33;;;;;;;8.30;4.50;;;;;;;;;;4999756;28;20054;-74
2022/08/24 05:50:01;;;;;;;7.00;4.45;;;;;;;;;;5002866;28;20097;-74
2022/08/24 05:52:29;;;;;;;6.68;4.55;;;;;;;;;;5014763;28;20076;-74
2022/08/24 05:54:57;;;;;;;8.30;5.30;;;;;;;;;;5030706;28;20062;-73
2022/08/24 05:57:24;;;;;;;9.05;5.40;;;;;;;;;;5015160;28;20054;-73
2022/08/24 05:59:51;;;;;;;10.30;5.90;;;;;;;;;;5016022;28;20385;-73
2022/08/24 06:02:22;;;;;;;7.07;5.40;;;;;;;;;;5012982;28;20853;-73
2022/08/24 06:04:50;;;;;;;10.13;6.30;;;;;;;;;;5012125;28;20066;-74
2022/08/24 06:07:17;;;;;;;8.85;6.00;;;;;;;;;;5010972;28;20039;-74
2022/08/24 06:09:44;;;;;;;8.82;6.03;;;;;;;;;;5014951;28;20086;-72
2022/08/24 06:12:11;;;;;;;8.52;6.32;;;;;;;;;;5015572;28;20030;-73
2022/08/24 06:14:38;;;;;;;6.93;5.45;;;;;;;;;;5038439;28;20047;-75
2022/08/24 06:17:06;;;;;;;9.20;5.90;;;;;;;;;;5027831;28;20045;-76
2022/08/24 06:19:34;;;;;;;14.73;6.03;;;;;;;;;;5024439;28;20031;-76
2022/08/24 06:22:01;;;;;;;8.48;5.22;;;;;;;;;;5028870;28;20097;-74
2022/08/24 06:27:22;;;;;;;7.78;6.45;;;;;;;;;;5013818;28;20058;-74
2022/08/24 06:29:50;;;;;;;8.88;5.82;;;;;;;;;;5017620;28;20035;-73
2022/08/24 06:32:18;;;;;;;9.80;6.07;;;;;;;;;;5004405;28;20062;-73
2022/08/24 06:34:45;;;;;;;11.65;6.70;;;;;;;;;;5028838;28;20042;-74
2022/08/24 06:37:14;;;;;;;14.73;10.88;;;;;;;;;;5018035;28;20137;-75
2022/08/24 06:39:41;;;;;;;18.58;9.52;;;;;;;;;;5020581;28;20031;-75
2022/08/24 06:42:09;;;;;;;20.15;13.93;;;;;;;;;;5017378;28;20045;-75
2022/08/24 06:44:36;;;;;;;17.70;14.32;;;;;;;;;;5007316;28;20958;-75
2022/08/24 06:47:04;;;;;;;25.90;19.90;;;;;;;;;;5023140;28;20047;-74
2022/08/24 06:49:31;;;;;;;23.48;19.85;;;;;;;;;;5014231;28;20093;-75
2022/08/24 06:51:58;;;;;;;26.17;19.48;;;;;;;;;;5011669;28;20078;-73
2022/08/24 06:54:25;;;;;;;29.55;18.48;;;;;;;;;;5013643;28;20046;-73
2022/08/24 06:56:55;;;;;;;27.73;19.17;;;;;;;;;;5005836;28;20047;-73
2022/08/24 06:59:22;;;;;;;26.52;19.08;;;;;;;;;;5014253;28;20142;-73
2022/08/24 07:01:49;;;;;;;24.02;17.90;;;;;;;;;;5015359;28;20114;-72
2022/08/24 07:04:16;;;;;;;27.58;17.80;;;;;;;;;;5005074;28;20082;-73
2022/08/24 07:06:43;;;;;;;25.85;18.60;;;;;;;;;;5001592;28;20061;-73
2022/08/24 07:09:11;;;;;;;24.42;17.50;;;;;;;;;;5010224;28;20062;-74
2022/08/24 07:11:38;;;;;;;23.80;18.05;;;;;;;;;;5002404;28;20050;-73
2022/08/24 07:14:05;;;;;;;27.85;18.77;;;;;;;;;;4996380;28;20844;-75
2022/08/24 07:16:33;;;;;;;26.30;16.70;;;;;;;;;;5004109;28;20515;-74
2022/08/24 07:19:01;;;;;;;22.80;16.15;;;;;;;;;;4999595;28;20513;-74
2022/08/24 07:21:28;;;;;;;25.38;16.30;;;;;;;;;;4996626;28;20133;-72
2022/08/24 07:23:56;;;;;;;24.98;17.27;;;;;;;;;;4996691;28;20429;-72
2022/08/24 07:26:25;;;;;;;21.02;16.48;;;;;;;;;;4999146;28;20046;-72
2022/08/24 07:28:59;;;;;;;22.75;15.50;;;;;;;;;;5008207;28;20057;-72
2022/08/24 07:31:27;;;;;;;24.65;15.90;;;;;;;;;;4998437;28;20139;-72
2022/08/24 07:34:00;;;;;;;26.00;16.65;;;;;;;;;;4998414;28;20888;-73
2022/08/24 07:36:27;;;;;;;28.45;16.08;;;;;;;;;;4999740;28;20050;-73
2022/08/24 07:38:56;;;;;;;23.67;15.50;;;;;;;;;;5002655;28;20047;-73
2022/08/24 07:41:26;;;;;;;24.30;15.82;;;;;;;;;;5000673;28;20053;-72
2022/08/24 07:44:14;;;;;;;19.98;15.52;;;;;;;;;;5003981;28;20042;-72
2022/08/24 07:46:41;;;;;;;22.05;15.55;;;;;;;;;;5000247;28;21046;-72
2022/08/24 07:49:09;;;;;;;26.50;15.60;;;;;;;;;;4997808;28;20952;-72
2022/08/24 07:51:56;;;;;;;23.58;15.60;;;;;;;;;;5000041;28;20055;-72
2022/08/24 07:54:24;;;;;;;25.13;17.02;;;;;;;;;;4999231;28;21175;-72
2022/08/24 07:56:51;;;;;;;20.52;15.82;;;;;;;;;;5005812;28;20047;-73
2022/08/24 07:59:18;;;;;;;22.17;15.25;;;;;;;;;;4997301;28;20051;-72
2022/08/24 08:01:45;;;;;;;24.92;14.85;;;;;;;;;;5002972;28;20089;-72
2022/08/24 08:04:14;;;;;;;18.40;12.13;;;;;;;;;;4999112;28;20056;-71
2022/08/24 08:06:41;;;;;;;15.65;12.63;;;;;;;;;;5004136;28;20052;-73
2022/08/24 08:09:09;;;;;;;16.42;12.18;;;;;;;;;;4998524;28;20048;-72
2022/08/24 08:11:36;;;;;;;19.48;12.05;;;;;;;;;;4997487;28;20051;-71
2022/08/24 08:14:03;;;;;;;16.45;10.93;;;;;;;;;;5003835;28;20057;-73
2022/08/24 08:16:30;;;;;;;19.35;11.98;;;;;;;;;;5002055;28;20051;-72
2022/08/24 08:18:57;;;;;;;24.60;10.30;;;;;;;;;;5012737;28;20047;-71
2022/08/24 08:24:27;;;;;;;15.70;9.65;;;;;;;;;;5007449;28;20520;-72
2022/08/24 08:26:56;;;;;;;13.82;9.30;;;;;;;;;;5020821;28;20046;-72
2022/08/24 08:29:24;;;;;;;12.57;7.82;;;;;;;;;;5001377;28;20055;-72
2022/08/24 08:31:51;;;;;;;20.52;8.45;;;;;;;;;;5010827;28;20042;-71
2022/08/24 08:34:18;;;;;;;14.23;8.05;;;;;;;;;;5004689;28;20145;-72
2022/08/24 08:36:45;;;;;;;15.77;6.38;;;;;;;;;;5004574;28;20054;-72
2022/08/24 08:39:14;;;;;;;11.23;6.22;;;;;;;;;;5007397;28;20053;-74
2022/08/24 08:41:44;;;;;;;8.88;5.47;;;;;;;;;;5005887;28;20057;-72
2022/08/24 08:44:16;;;;;;;8.75;4.82;;;;;;;;;;5007801;28;20052;-72
2022/08/24 08:46:51;;;;;;;8.60;4.28;;;;;;;;;;5013415;28;20061;-74
2022/08/24 08:49:34;;;;;;;11.65;4.28;;;;;;;;;;5009455;28;20054;-72
2022/08/24 08:52:04;;;;;;;14.07;3.45;;;;;;;;;;5008808;28;20052;-71
2022/08/24 08:54:39;;;;;;;9.00;3.55;;;;;;;;;;5003648;28;20065;-72
2022/08/24 08:57:17;;;;;;;4.30;2.97;;;;;;;;;;5007154;28;20065;-72
2022/08/24 08:59:45;;;;;;;11.77;3.60;;;;;;;;;;5007208;28;20134;-72
2022/08/24 09:02:27;;;;;;;6.13;3.00;;;;;;;;;;5021271;28;20039;-72
2022/08/24 09:05:19;;;;;;;6.72;2.78;;;;;;;;;;5007384;28;20053;-72
2022/08/24 09:08:05;;;;;;;6.32;2.78;;;;;;;;;;5018565;28;20532;-72
2022/08/24 09:10:38;;;;;;;5.70;2.70;;;;;;;;;;4999904;28;20057;-72
2022/08/24 09:13:11;;;;;;;7.85;2.65;;;;;;;;;;5002391;28;20524;-73
2022/08/24 09:15:57;;;;;;;5.38;3.10;;;;;;;;;;4998086;28;20066;-72
2022/08/24 09:18:37;;;;;;;7.28;2.80;;;;;;;;;;5005029;28;20887;-72
2022/08/24 09:21:08;;;;;;;7.13;2.90;;;;;;;;;;5001022;28;20062;-74
2022/08/24 09:23:47;;;;;;;5.68;2.70;;;;;;;;;;4996261;28;20046;-72
2022/08/24 09:26:20;;;;;;;5.53;2.58;;;;;;;;;;4996134;28;20053;-73
2022/08/24 09:29:01;;;;;;;6.72;2.50;;;;;;;;;;5000196;28;20065;-72
2022/08/24 09:31:29;;;;;;;8.07;2.65;;;;;;;;;;4999164;28;20919;-73
2022/08/24 09:34:10;;;;;;;4.97;2.70;;;;;;;;;;4997662;28;20054;-76
2022/08/24 09:36:40;;;;;;;4.68;2.63;;;;;;;;;;5015615;28;20493;-75
2022/08/24 09:39:18;;;;;;;7.93;2.65;;;;;;;;;;4999782;28;20062;-75
2022/08/24 09:42:04;;;;;;;9.80;3.05;;;;;;;;;;5018568;28;20042;-75
2022/08/24 09:45:00;;;;;;;6.07;3.25;;;;;;;;;;4999373;28;20050;-75
2022/08/24 09:47:36;;;;;;;7.07;3.35;;;;;;;;;;4998974;28;20694;-75
2022/08/24 09:50:22;;;;;;;5.47;2.72;;;;;;;;;;4999320;28;20054;-77
2022/08/24 09:53:08;;;;;;;5.60;2.17;;;;;;;;;;5000687;28;20054;-76
2022/08/24 09:55:35;;;;;;;3.58;2.05;;;;;;;;;;4999654;28;20047;-76
2022/08/24 09:58:14;;;;;;;9.73;2.80;;;;;;;;;;5006736;28;20551;-76
2022/08/24 10:00:45;;;;;;;5.70;2.38;;;;;;;;;;5002388;28;20505;-76
2022/08/24 10:03:22;;;;;;;5.88;2.35;;;;;;;;;;4995619;28;20603;-75
2022/08/24 10:06:15;;;;;;;4.55;2.17;;;;;;;;;;4994687;28;20055;-77
2022/08/24 10:09:01;;;;;;;4.30;1.92;;;;;;;;;;4999672;28;20058;-75
2022/08/24 10:11:38;;;;;;;4.45;1.88;;;;;;;;;;5002837;28;20055;-76
2022/08/24 10:14:22;;;;;;;5.65;1.85;;;;;;;;;;4997800;28;20152;-75
2022/08/24 10:17:09;;;;;;;4.22;1.98;;;;;;;;;;5012528;28;20600;-77
2022/08/24 10:19:42;;;;;;;2.83;1.83;;;;;;;;;;5002763;28;20051;-74
2022/08/24 10:22:28;;;;;;;5.22;2.13;;;;;;;;;;5004998;28;20050;-75
2022/08/24 10:24:59;;;;;;;3.97;2.05;;;;;;;;;;5013192;28;20059;-75
2022/08/24 10:27:39;;;;;;;3.92;2.03;;;;;;;;;;5023763;28;20043;-76
2022/08/24 10:30:15;;;;;;;6.55;2.20;;;;;;;;;;5020763;28;20098;-76
2022/08/24 10:33:08;;;;;;;2.83;1.85;;;;;;;;;;5021266;28;20082;-77
2022/08/24 10:35:38;;;;;;;5.32;2.10;;;;;;;;;;5020467;28;20031;-77
2022/08/24 10:41:05;;;;;;;6.70;1.88;;;;;;;;;;5026024;28;20058;-74
2022/08/24 10:43:40;;;;;;;4.10;1.33;;;;;;;;;;5021558;28;20026;-75
2022/08/24 10:50:01;;;;;;;3.33;1.60;;;;;;;;;;5010644;28;20054;-77
2022/08/24 10:52:40;;;;;;;2.30;1.40;;;;;;;;;;5020455;28;20051;-77
2022/08/24 10:55:12;;;;;;;1.30;1.20;;;;;;;;;;5023565;28;20034;-76
2022/08/24 10:57:43;;;;;;;3.03;1.40;;;;;;;;;;5019362;28;20823;-76
2022/08/24 11:00:17;;;;;;;2.47;1.27;;;;;;;;;;5025462;28;20042;-73
2022/08/24 11:02:49;;;;;;;5.80;1.13;;;;;;;;;;5025173;28;20046;-78
2022/08/24 11:05:36;;;;;;;2.25;1.40;;;;;;;;;;5020685;28;20094;-75
2022/08/24 11:08:04;;;;;;;2.53;1.80;;;;;;;;;;5023399;28;20027;-75
2022/08/24 11:10:34;;;;;;;3.75;1.42;;;;;;;;;;5030045;28;20038;-76
2022/08/24 11:13:20;;;;;;;3.03;1.80;;;;;;;;;;5021971;28;20110;-74
2022/08/24 11:15:50;;;;;;;4.90;1.63;;;;;;;;;;5020209;28;20102;-77
2022/08/24 11:18:17;;;;;;;2.58;1.60;;;;;;;;;;5027841;28;20038;-77
2022/08/24 11:20:46;;;;;;;6.97;1.63;;;;;;;;;;5023844;28;20046;-76
2022/08/24 11:23:24;;;;;;;2.45;1.48;;;;;;;;;;5023573;28;20031;-77
2022/08/24 11:25:58;;;;;;;2.80;1.20;;;;;;;;;;5022043;28;20563;-77
2022/08/24 11:28:28;;;;;;;3.65;1.38;;;;;;;;;;5005377;28;20055;-75
2022/08/24 11:30:55;;;;;;;2.67;1.30;;;;;;;;;;5007757;28;20057;-75
2022/08/24 11:33:26;;;;;;;3.00;1.40;;;;;;;;;;5012594;28;20042;-75
2022/08/24 11:35:53;;;;;;;1.35;1.15;;;;;;;;;;5012668;28;20055;-75
2022/08/24 11:38:26;;;;;;;1.65;1.20;;;;;;;;;;5012631;28;20047;-75
2022/08/24 11:41:06;;;;;;;2.58;1.30;;;;;;;;;;5008964;28;20145;-77
2022/08/24 11:43:41;;;;;;;2.08;1.20;;;;;;;;;;5009596;28;20117;-74
2022/08/24 11:46:18;;;;;;;3.25;1.42;;;;;;;;;;5015070;28;20035;-77
2022/08/24 11:48:53;;;;;;;10.02;1.30;;;;;;;;;;5011407;28;20054;-74
2022/08/24 11:51:20;;;;;;;4.07;1.13;;;;;;;;;;5012759;28;20050;-77
2022/08/24 11:53:51;;;;;;;2.10;1.27;;;;;;;;;;5011024;28;20050;-75
2022/08/24 11:56:25;;;;;;;1.77;1.25;;;;;;;;;;5005202;28;20034;-75
2022/08/24 11:59:00;;;;;;;3.95;1.35;;;;;;;;;;5010087;28;20050;-74
2022/08/24 12:01:31;;;;;;;1.83;1.33;;;;;;;;;;5007660;28;20072;-74
2022/08/24 12:03:59;;;;;;;2.10;1.20;;;;;;;;;;5009963;28;20054;-75
2022/08/24 12:06:45;;;;;;;2.83;1.40;;;;;;;;;;5009070;28;20130;-75
2022/08/24 12:09:30;;;;;;;1.40;1.30;;;;;;;;;;5006732;28;20059;-74
2022/08/24 12:12:08;;;;;;;1.33;0.93;;;;;;;;;;5009231;28;20046;-75
2022/08/24 12:14:45;;;;;;;1.45;1.20;;;;;;;;;;5005084;28;20061;-75
2022/08/24 12:17:26;;;;;;;2.65;1.30;;;;;;;;;;5010899;28;20204;-75
2022/08/24 12:20:00;;;;;;;2.75;1.23;;;;;;;;;;5012076;28;20057;-77
2022/08/24 12:22:28;;;;;;;1.17;1.08;;;;;;;;;;5008717;28;20065;-75
2022/08/24 12:24:56;;;;;;;1.48;1.10;;;;;;;;;;5008876;28;20145;-76
2022/08/24 12:27:29;;;;;;;1.60;1.10;;;;;;;;;;5024635;28;20055;-75
2022/08/24 12:30:02;;;;;;;3.53;1.20;;;;;;;;;;5028665;28;20049;-74
2022/08/24 12:32:37;;;;;;;1.50;1.10;;;;;;;;;;5001889;28;20054;-74
2022/08/24 12:35:09;;;;;;;1.40;1.10;;;;;;;;;;5003381;28;20958;-74
2022/08/24 12:37:40;;;;;;;3.90;1.20;;;;;;;;;;5005937;28;20898;-76
2022/08/24 12:40:21;;;;;;;1.75;1.10;;;;;;;;;;5008307;28;20043;-74
2022/08/24 12:42:51;;;;;;;7.07;1.45;;;;;;;;;;5005127;28;20051;-75
2022/08/24 12:45:19;;;;;;;1.77;1.20;;;;;;;;;;5009843;28;20055;-74
2022/08/24 12:47:53;;;;;;;1.88;1.17;;;;;;;;;;5004804;28;20122;-74
2022/08/24 12:50:32;;;;;;;1.73;1.20;;;;;;;;;;5007322;28;20050;-74
2022/08/24 12:53:15;;;;;;;1.27;1.17;;;;;;;;;;5006069;28;20054;-75
2022/08/24 12:55:47;;;;;;;1.52;1.13;;;;;;;;;;5011624;28;20054;-76
2022/08/24 12:58:18;;;;;;;3.35;1.50;;;;;;;;;;5011829;28;20059;-75
2022/08/24 13:01:06;;;;;;;6.10;1.30;;;;;;;;;;5014224;28;20043;-77
2022/08/24 13:03:38;;;;;;;2.50;1.35;;;;;;;;;;5020264;28;20053;-76
2022/08/24 13:06:26;;;;;;;5.47;1.30;;;;;;;;;;5019126;28;20054;-74
2022/08/24 13:09:04;;;;;;;6.00;1.30;;;;;;;;;;5014505;28;20054;-76
2022/08/24 13:11:33;;;;;;;3.33;1.55;;;;;;;;;;5016182;28;20039;-76
2022/08/24 13:14:03;;;;;;;1.27;1.10;;;;;;;;;;5017921;28;20057;-76
2022/08/24 13:16:50;;;;;;;6.65;1.50;;;;;;;;;;5017511;28;20706;-75
2022/08/24 13:19:44;;;;;;;6.43;1.42;;;;;;;;;;5013466;28;20138;-76
2022/08/24 13:22:12;;;;;;;2.70;1.55;;;;;;;;;;5009888;28;20050;-75
2022/08/24 13:24:39;;;;;;;4.35;1.67;;;;;;;;;;5013464;28;20041;-75
2022/08/24 13:27:12;;;;;;;2.08;1.35;;;;;;;;;;5015306;28;20042;-76
2022/08/24 13:29:42;;;;;;;3.15;1.40;;;;;;;;;;5013043;28;20046;-76
2022/08/24 13:32:16;;;;;;;3.05;1.30;;;;;;;;;;5008876;28;20042;-75
2022/08/24 13:34:45;;;;;;;7.13;1.50;;;;;;;;;;5009481;28;20060;-75
2022/08/24 13:37:23;;;;;;;2.72;1.33;;;;;;;;;;5009182;28;20081;-74
2022/08/24 13:39:59;;;;;;;3.25;1.30;;;;;;;;;;5004217;28;20038;-75
2022/08/24 13:42:46;;;;;;;2.17;1.20;;;;;;;;;;5007869;28;20039;-75
2022/08/24 13:45:35;;;;;;;1.85;1.33;;;;;;;;;;5028529;28;20116;-75
2022/08/24 13:48:08;;;;;;;4.88;1.60;;;;;;;;;;5006049;28;20054;-76
2022/08/24 13:50:48;;;;;;;2.20;1.50;;;;;;;;;;5010016;28;20054;-77
2022/08/24 13:53:15;;;;;;;4.00;1.40;;;;;;;;;;5006421;28;20795;-75
2022/08/24 13:55:53;;;;;;;2.40;1.55;;;;;;;;;;5001604;28;20051;-75
2022/08/24 13:58:33;;;;;;;1.35;1.10;;;;;;;;;;5001458;28;20047;-74
2022/08/24 14:01:05;;;;;;;3.67;1.45;;;;;;;;;;5009346;28;20047;-75
2022/08/24 14:03:43;;;;;;;7.05;1.67;;;;;;;;;;5011837;28;20110;-75
2022/08/24 14:06:33;;;;;;;2.10;1.38;;;;;;;;;;5008176;28;20519;-75
2022/08/24 14:09:09;;;;;;;1.42;1.30;;;;;;;;;;5027728;28;20799;-75
2022/08/24 14:11:41;;;;;;;3.10;1.55;;;;;;;;;;5006937;28;20057;-75
2022/08/24 14:14:14;;;;;;;2.38;1.50;;;;;;;;;;4999109;28;20057;-75
2022/08/24 14:19:36;;;;;;;7.00;1.40;;;;;;;;;;5001885;28;20049;-75
2022/08/24 14:22:10;;;;;;;1.30;1.20;;;;;;;;;;5024338;28;20057;-75
2022/08/24 14:24:39;;;;;;;1.73;1.35;;;;;;;;;;5008338;28;20026;-75
2022/08/24 14:27:30;;;;;;;1.60;1.10;;;;;;;;;;5005902;28;20065;-75
2022/08/24 14:30:32;;;;;;;1.77;1.30;;;;;;;;;;5007997;28;20176;-76
2022/08/24 14:32:59;;;;;;;3.85;1.60;;;;;;;;;;5006546;28;20061;-75
2022/08/24 14:35:32;;;;;;;3.47;1.23;;;;;;;;;;5002273;28;20058;-76
2022/08/24 14:38:18;;;;;;;3.15;1.55;;;;;;;;;;5003728;28;20647;-75
2022/08/24 14:41:01;;;;;;;1.85;1.30;;;;;;;;;;5001868;28;20047;-75
2022/08/24 14:43:29;;;;;;;8.15;1.58;;;;;;;;;;4999591;28;20062;-76
2022/08/24 14:46:08;;;;;;;6.20;1.52;;;;;;;;;;5004798;28;20133;-75
2022/08/24 14:48:38;;;;;;;2.05;1.30;;;;;;;;;;5007947;28;20061;-75
2022/08/24 14:51:12;;;;;;;1.95;1.30;;;;;;;;;;5004058;28;20081;-75
2022/08/24 14:53:54;;;;;;;7.35;1.58;;;;;;;;;;5008746;28;20058;-76
2022/08/24 14:56:47;;;;;;;1.97;1.40;;;;;;;;;;5006537;28;20748;-76
2022/08/24 14:59:33;;;;;;;4.78;1.65;;;;;;;;;;5002133;28;20873;-76
2022/08/24 15:02:18;;;;;;;3.65;1.48;;;;;;;;;;5005630;28;20051;-76
2022/08/24 15:04:48;;;;;;;2.33;1.52;;;;;;;;;;5000321;28;20046;-75
2022/08/24 15:07:23;;;;;;;3.17;1.65;;;;;;;;;;5002969;28;20864;-75
2022/08/24 15:09:51;;;;;;;5.80;1.63;;;;;;;;;;5004006;28;20054;-77
2022/08/24 15:12:21;;;;;;;3.83;1.50;;;;;;;;;;5000337;28;20070;-74
2022/08/24 15:14:53;;;;;;;2.47;1.55;;;;;;;;;;5001138;28;20097;-76
2022/08/24 15:17:26;;;;;;;3.20;1.40;;;;;;;;;;4998723;28;20133;-76
2022/08/24 15:20:02;;;;;;;3.17;1.50;;;;;;;;;;4998141;28;20050;-75
2022/08/24 15:22:39;;;;;;;2.58;1.48;;;;;;;;;;5001621;28;20055;-76